Time;durP1;ratioP1;P1;durP2;ratioP2;P2;SDS_P1;SDS_P2;PMS_P1;PMS_P2;Temp;Humidity;BMP_temperature;BMP_pressure;BME280_temperature;BME280_humidity;BME280_pressure;Samples;Min_cycle;Max_cycle;Signal;HPM_P1;HPM_P2
2023/05/27 00:02:19;;;;;;;11.23;4.93;;;15.00;85.10;;;;;;6277389;28;20052;-81
2023/05/27 00:05:22;;;;;;;10.98;4.88;;;15.00;85.00;;;;;;6277041;28;20044;-78
2023/05/27 00:08:23;;;;;;;13.23;4.97;;;14.90;85.00;;;;;;6276244;28;20048;-80
2023/05/27 00:11:25;;;;;;;11.90;5.82;;;14.90;84.90;;;;;;6274942;28;20060;-81
2023/05/27 00:14:27;;;;;;;18.58;7.55;;;14.80;84.90;;;;;;6274141;28;20178;-82
2023/05/27 00:17:29;;;;;;;12.35;5.53;;;14.80;84.80;;;;;;6274025;28;20045;-82
2023/05/27 00:20:33;;;;;;;13.52;4.38;;;14.80;84.70;;;;;;6274933;28;20045;-80
2023/05/27 00:23:35;;;;;;;14.27;5.18;;;14.80;84.80;;;;;;6274896;28;20052;-78
2023/05/27 00:26:38;;;;;;;14.20;6.70;;;14.70;84.70;;;;;;6277551;28;20049;-82
2023/05/27 00:29:40;;;;;;;10.88;5.57;;;14.70;84.70;;;;;;6281822;28;20060;-78
2023/05/27 00:32:42;;;;;;;16.10;4.53;;;14.70;84.60;;;;;;6277224;28;20045;-82
2023/05/27 00:35:45;;;;;;;13.68;4.82;;;14.70;84.50;;;;;;6274067;28;20060;-80
2023/05/27 00:38:46;;;;;;;12.00;5.05;;;14.60;84.30;;;;;;6273526;28;20049;-81
2023/05/27 00:41:50;;;;;;;10.80;4.38;;;14.60;84.20;;;;;;6273477;28;20049;-82
2023/05/27 00:44:52;;;;;;;10.38;4.45;;;14.60;84.20;;;;;;6272221;28;20064;-79
2023/05/27 00:47:53;;;;;;;11.43;4.65;;;14.60;84.10;;;;;;6259410;28;20392;-83
2023/05/27 00:50:57;;;;;;;13.02;5.80;;;14.60;84.20;;;;;;6250820;28;20056;-80
2023/05/27 00:53:58;;;;;;;18.77;5.72;;;14.50;84.20;;;;;;6250219;28;20122;-81
2023/05/27 00:57:02;;;;;;;17.17;4.65;;;14.50;84.20;;;;;;6248190;28;20499;-78
2023/05/27 01:00:09;;;;;;;12.15;4.13;;;14.50;84.10;;;;;;6249255;28;20041;-79
2023/05/27 01:03:11;;;;;;;11.23;4.57;;;14.40;84.10;;;;;;6249566;28;20056;-81
2023/05/27 01:06:28;;;;;;;11.75;4.55;;;14.40;84.10;;;;;;6249492;28;20053;-78
2023/05/27 01:09:36;;;;;;;17.30;4.47;;;14.40;84.30;;;;;;6249972;28;20045;-81
2023/05/27 01:12:43;;;;;;;15.00;5.30;;;14.30;84.30;;;;;;6250342;28;20056;-79
2023/05/27 01:15:46;;;;;;;8.02;4.40;;;14.30;84.40;;;;;;6249459;28;20049;-78
2023/05/27 01:18:49;;;;;;;10.35;4.28;;;14.20;84.40;;;;;;6249881;28;20049;-79
2023/05/27 01:21:55;;;;;;;12.20;4.38;;;14.20;84.50;;;;;;6252136;28;20423;-80
2023/05/27 01:24:58;;;;;;;8.75;3.85;;;14.10;84.40;;;;;;6248398;28;20041;-80
2023/05/27 01:28:00;;;;;;;11.88;5.40;;;14.10;84.30;;;;;;6248128;28;20045;-78
2023/05/27 01:31:06;;;;;;;9.32;3.85;;;14.10;84.30;;;;;;6249402;28;20049;-78
2023/05/27 01:34:13;;;;;;;12.35;4.82;;;14.10;84.20;;;;;;6249504;28;20053;-78
2023/05/27 01:37:19;;;;;;;12.65;5.47;;;14.10;84.10;;;;;;6249345;28;20046;-81
2023/05/27 01:40:23;;;;;;;14.00;5.85;;;14.10;83.90;;;;;;6249328;28;20467;-79
2023/05/27 01:43:25;;;;;;;11.65;5.13;;;14.10;83.80;;;;;;6248965;28;20088;-78
2023/05/27 01:46:27;;;;;;;11.77;5.15;;;14.10;83.90;;;;;;6248875;28;20092;-78
2023/05/27 01:49:30;;;;;;;16.95;3.92;;;14.00;83.70;;;;;;6247670;28;20045;-78
2023/05/27 01:52:32;;;;;;;13.45;4.68;;;14.00;83.60;;;;;;6248390;28;20042;-78
2023/05/27 01:55:35;;;;;;;14.48;4.30;;;14.00;83.60;;;;;;6247481;28;20060;-79
2023/05/27 01:58:37;;;;;;;8.88;4.38;;;14.00;83.50;;;;;;6248972;28;20065;-78
2023/05/27 02:01:38;;;;;;;15.48;4.80;;;14.00;83.40;;;;;;6248281;28;20052;-78
2023/05/27 02:04:40;;;;;;;12.10;3.83;;;14.00;83.40;;;;;;6249237;28;20041;-78
2023/05/27 02:07:42;;;;;;;14.05;5.30;;;14.00;83.40;;;;;;6247812;28;20444;-82
2023/05/27 02:10:45;;;;;;;22.15;5.10;;;14.00;84.00;;;;;;6247105;28;20487;-78
2023/05/27 02:13:46;;;;;;;16.58;4.95;;;14.00;83.20;;;;;;6247429;28;20419;-79
2023/05/27 02:16:49;;;;;;;12.10;4.03;;;13.90;83.10;;;;;;6247172;28;20046;-81
2023/05/27 02:19:51;;;;;;;10.25;4.35;;;13.90;83.20;;;;;;6247491;28;20049;-79
2023/05/27 02:22:53;;;;;;;12.40;4.95;;;14.00;83.30;;;;;;6252266;28;20034;-83
2023/05/27 02:25:55;;;;;;;13.77;4.25;;;13.90;83.20;;;;;;6275199;28;20048;-81
2023/05/27 02:28:57;;;;;;;18.80;5.57;;;13.90;83.30;;;;;;6252198;28;20053;-79
2023/05/27 02:31:59;;;;;;;13.27;5.53;;;13.80;83.30;;;;;;6249218;28;20055;-81
2023/05/27 02:35:01;;;;;;;14.15;4.70;;;13.80;83.40;;;;;;6252271;28;20053;-80
2023/05/27 02:38:02;;;;;;;13.70;4.30;;;13.70;83.40;;;;;;6247224;28;20056;-81
2023/05/27 02:41:06;;;;;;;10.95;3.95;;;13.70;83.50;;;;;;6271488;28;20414;-78
2023/05/27 02:44:07;;;;;;;11.27;4.57;;;13.70;83.60;;;;;;6271773;28;20041;-81
2023/05/27 02:47:09;;;;;;;15.23;4.40;;;13.60;83.80;;;;;;6272449;28;20049;-78
2023/05/27 02:50:11;;;;;;;11.05;3.80;;;13.50;83.80;;;;;;6271267;28;20041;-78
2023/05/27 02:53:12;;;;;;;19.08;4.75;;;13.50;84.00;;;;;;6271978;28;20048;-81
2023/05/27 02:56:15;;;;;;;9.63;4.78;;;13.50;84.10;;;;;;6271629;28;20053;-80
2023/05/27 02:59:17;;;;;;;9.32;4.05;;;13.40;84.20;;;;;;6271935;28;20052;-78
2023/05/27 03:02:19;;;;;;;10.38;4.55;;;13.40;84.40;;;;;;6271905;28;20049;-78
2023/05/27 03:05:20;;;;;;;14.00;4.97;;;13.30;84.50;;;;;;6271455;28;20060;-80
2023/05/27 03:08:22;;;;;;;14.68;5.55;;;13.30;84.70;;;;;;6275375;28;20045;-79
2023/05/27 03:11:26;;;;;;;15.55;6.82;;;13.20;84.80;;;;;;6276422;28;20048;-79
2023/05/27 03:14:27;;;;;;;11.38;5.05;;;13.20;85.10;;;;;;6276377;28;20526;-79
2023/05/27 03:17:29;;;;;;;10.77;4.43;;;13.10;85.30;;;;;;6275717;28;20048;-81
2023/05/27 03:20:31;;;;;;;14.45;5.03;;;13.10;85.40;;;;;;6276214;28;20048;-80
2023/05/27 03:23:32;;;;;;;9.35;4.95;;;13.10;85.70;;;;;;6275220;28;20442;-79
2023/05/27 03:26:35;;;;;;;8.05;3.88;;;13.00;85.70;;;;;;6276472;28;20049;-78
2023/05/27 03:29:37;;;;;;;10.52;4.28;;;13.00;86.10;;;;;;6275202;28;20045;-78
2023/05/27 03:32:39;;;;;;;10.32;4.35;;;12.90;86.30;;;;;;6276192;28;20049;-78
2023/05/27 03:35:40;;;;;;;15.05;4.00;;;12.80;86.50;;;;;;6276546;28;20049;-78
2023/05/27 03:38:42;;;;;;;7.60;5.30;;;12.80;86.70;;;;;;6275710;28;20522;-79
2023/05/27 03:41:45;;;;;;;12.60;3.90;;;12.80;87.00;;;;;;6276247;28;20044;-78
2023/05/27 03:44:47;;;;;;;17.98;6.82;;;12.70;87.10;;;;;;6276224;28;20049;-78
2023/05/27 03:47:49;;;;;;;9.90;3.72;;;12.70;87.10;;;;;;6280258;28;20048;-79
2023/05/27 03:50:50;;;;;;;10.38;4.95;;;12.70;88.10;;;;;;6286986;28;20053;-81
2023/05/27 03:53:52;;;;;;;15.77;4.70;;;12.70;87.60;;;;;;6280792;28;20531;-80
2023/05/27 03:56:55;;;;;;;13.75;5.35;;;12.70;87.80;;;;;;6275600;28;20045;-80
2023/05/27 03:59:57;;;;;;;10.73;5.53;;;12.70;88.00;;;;;;6275232;28;20088;-80
2023/05/27 04:02:59;;;;;;;13.85;5.00;;;12.80;88.00;;;;;;6275958;28;20053;-82
2023/05/27 04:06:00;;;;;;;15.23;5.15;;;12.90;87.90;;;;;;6275161;28;20048;-80
2023/05/27 04:09:03;;;;;;;12.55;4.53;;;12.90;87.80;;;;;;6274919;28;20051;-79
2023/05/27 04:12:07;;;;;;;12.00;5.35;;;12.90;87.80;;;;;;6275058;28;20045;-79
2023/05/27 04:15:11;;;;;;;14.38;4.53;;;12.90;87.90;;;;;;6275902;28;20053;-78
2023/05/27 04:18:15;;;;;;;18.98;5.18;;;13.00;88.00;;;;;;6273619;28;20124;-79
2023/05/27 04:21:17;;;;;;;10.23;4.30;;;13.00;88.20;;;;;;6274924;28;20045;-79
2023/05/27 04:24:18;;;;;;;17.40;4.43;;;13.20;88.60;;;;;;6274458;28;20391;-78
2023/05/27 04:27:24;;;;;;;21.20;6.50;;;13.50;88.80;;;;;;6274723;28;20047;-80
2023/05/27 04:30:26;;;;;;;14.57;4.75;;;13.70;88.20;;;;;;6273900;28;20049;-80
2023/05/27 04:33:28;;;;;;;12.63;3.65;;;14.10;87.30;;;;;;6274434;28;20060;-78
2023/05/27 04:36:33;;;;;;;10.05;4.60;;;14.30;86.00;;;;;;6274326;28;20041;-79
2023/05/27 04:39:35;;;;;;;15.05;4.53;;;14.50;85.90;;;;;;6274611;28;20052;-79
2023/05/27 04:42:38;;;;;;;10.32;4.03;;;14.80;85.70;;;;;;6274581;28;20059;-79
2023/05/27 04:45:40;;;;;;;9.65;3.97;;;15.30;84.30;;;;;;6274200;28;20041;-79
2023/05/27 04:48:44;;;;;;;13.52;3.78;;;15.70;83.00;;;;;;6273738;28;20045;-80
2023/05/27 04:51:47;;;;;;;7.80;4.72;;;16.00;81.20;;;;;;6275029;28;20057;-78
2023/05/27 04:54:48;;;;;;;15.10;4.82;;;16.30;80.20;;;;;;6274930;28;20052;-78
2023/05/27 04:57:52;;;;;;;12.25;4.40;;;16.70;79.00;;;;;;6276495;28;20056;-79
2023/05/27 05:00:54;;;;;;;11.23;4.88;;;17.00;77.60;;;;;;6277948;28;20108;-80
2023/05/27 05:04:11;;;;;;;11.45;3.80;;;17.30;76.60;;;;;;6277437;28;20045;-80
2023/05/27 05:07:14;;;;;;;10.27;3.65;;;17.70;75.70;;;;;;6276309;28;20471;-79
2023/05/27 05:10:15;;;;;;;13.48;4.13;;;18.00;73.90;;;;;;6258702;28;20041;-80
2023/05/27 05:13:18;;;;;;;14.68;4.05;;;18.20;72.80;;;;;;6251543;28;20053;-82
2023/05/27 05:16:20;;;;;;;18.13;4.47;;;18.40;71.60;;;;;;6252038;28;20044;-80
2023/05/27 05:19:22;;;;;;;16.75;4.10;;;18.60;70.60;;;;;;6251789;28;20561;-80
2023/05/27 05:22:23;;;;;;;7.72;3.38;;;18.60;69.80;;;;;;6250626;28;20046;-80
2023/05/27 05:25:25;;;;;;;9.70;3.70;;;18.80;68.90;;;;;;6250598;28;20128;-80
2023/05/27 05:28:28;;;;;;;11.00;3.60;;;18.90;68.00;;;;;;6271977;28;20053;-80
2023/05/27 05:31:30;;;;;;;10.00;3.83;;;18.90;67.20;;;;;;6275639;28;20044;-81
2023/05/27 05:34:32;;;;;;;10.55;4.00;;;18.90;67.10;;;;;;6300373;28;20483;-80
2023/05/27 05:37:33;;;;;;;15.55;5.18;;;19.00;66.50;;;;;;6282909;28;20055;-81
2023/05/27 05:40:35;;;;;;;11.98;4.32;;;19.00;66.10;;;;;;6275063;28;20045;-81
2023/05/27 05:43:38;;;;;;;10.50;3.90;;;19.30;66.00;;;;;;6274417;28;20745;-80
2023/05/27 05:46:40;;;;;;;9.02;4.00;;;19.60;65.00;;;;;;6275494;28;20047;-81
2023/05/27 05:49:42;;;;;;;13.50;4.22;;;19.70;64.20;;;;;;6274554;28;20400;-80
2023/05/27 05:52:43;;;;;;;12.48;4.07;;;19.80;63.80;;;;;;6274453;28;20067;-80
2023/05/27 05:55:45;;;;;;;13.73;4.35;;;19.90;63.40;;;;;;6274536;28;20419;-79
2023/05/27 05:58:48;;;;;;;11.93;4.40;;;20.00;63.00;;;;;;6274991;28;20049;-81
2023/05/27 06:01:50;;;;;;;7.78;3.22;;;20.20;62.90;;;;;;6274209;28;20056;-81
2023/05/27 06:04:51;;;;;;;10.75;3.85;;;20.60;62.80;;;;;;6274231;28;20045;-81
2023/05/27 06:07:54;;;;;;;10.48;4.35;;;20.90;61.60;;;;;;6271366;28;20045;-78
2023/05/27 06:10:55;;;;;;;11.27;3.90;;;21.10;61.10;;;;;;6272667;28;20045;-78
2023/05/27 06:13:58;;;;;;;12.88;5.85;;;21.20;60.10;;;;;;6270500;28;20045;-78
2023/05/27 06:17:00;;;;;;;14.88;4.55;;;21.20;59.40;;;;;;6270714;28;20045;-78
2023/05/27 06:20:02;;;;;;;9.63;3.35;;;21.00;59.60;;;;;;6269408;28;20052;-77
2023/05/27 06:23:05;;;;;;;12.50;3.75;;;21.10;60.40;;;;;;6270907;28;20061;-78
2023/05/27 06:26:07;;;;;;;10.18;3.50;;;21.30;59.00;;;;;;6270106;28;20109;-78
2023/05/27 06:29:10;;;;;;;11.50;3.80;;;21.20;58.80;;;;;;6270117;28;20052;-78
2023/05/27 06:32:11;;;;;;;9.30;4.07;;;21.40;59.00;;;;;;6270137;28;20063;-78
2023/05/27 06:35:13;;;;;;;11.15;4.78;;;21.70;58.10;;;;;;6270035;28;20072;-79
2023/05/27 06:38:15;;;;;;;11.63;4.03;;;21.70;57.90;;;;;;6269799;28;20052;-78
2023/05/27 06:41:17;;;;;;;12.35;4.38;;;21.80;58.00;;;;;;6270834;28;20056;-79
2023/05/27 06:44:20;;;;;;;11.90;4.05;;;22.20;57.80;;;;;;6275525;28;20044;-79
2023/05/27 06:47:22;;;;;;;19.50;5.20;;;22.60;56.60;;;;;;6275751;28;20522;-77
2023/05/27 06:50:23;;;;;;;14.23;4.85;;;22.60;55.80;;;;;;6275680;28;20045;-79
2023/05/27 06:53:25;;;;;;;13.30;4.07;;;22.60;55.90;;;;;;6274565;28;20078;-78
2023/05/27 06:56:27;;;;;;;12.38;4.20;;;22.50;55.20;;;;;;6275079;28;20060;-78
2023/05/27 06:59:30;;;;;;;10.13;3.78;;;22.30;55.90;;;;;;6270988;28;20123;-79
2023/05/27 07:02:31;;;;;;;10.52;4.13;;;22.40;55.50;;;;;;6278545;28;20041;-77
2023/05/27 07:05:33;;;;;;;15.10;4.38;;;22.70;55.40;;;;;;6263916;28;20069;-79
2023/05/27 07:08:35;;;;;;;8.25;3.63;;;22.80;54.60;;;;;;6247878;28;20049;-78
2023/05/27 07:11:37;;;;;;;9.23;4.07;;;22.10;54.80;;;;;;6256597;28;20056;-79
2023/05/27 07:14:40;;;;;;;14.45;4.50;;;21.30;56.10;;;;;;6264863;28;20056;-79
2023/05/27 07:17:41;;;;;;;9.75;3.33;;;20.70;57.20;;;;;;6264679;28;20431;-78
2023/05/27 07:20:43;;;;;;;13.88;3.85;;;19.90;58.50;;;;;;6260192;28;20048;-78
2023/05/27 07:23:45;;;;;;;9.20;5.10;;;19.30;59.90;;;;;;6260110;28;20522;-77
2023/05/27 07:26:47;;;;;;;12.60;4.20;;;18.90;60.70;;;;;;6259293;28;20045;-77
2023/05/27 07:29:50;;;;;;;13.55;4.47;;;18.70;61.80;;;;;;6253607;28;20045;-79
2023/05/27 07:32:51;;;;;;;9.15;4.03;;;18.50;62.40;;;;;;6257156;28;20037;-77
2023/05/27 07:35:53;;;;;;;14.40;4.80;;;18.50;62.90;;;;;;6261227;28;20048;-78
2023/05/27 07:38:55;;;;;;;16.85;4.75;;;18.60;63.10;;;;;;6256381;28;20053;-79
2023/05/27 07:41:56;;;;;;;14.75;4.65;;;18.50;63.10;;;;;;6255179;28;20060;-79
2023/05/27 07:44:59;;;;;;;9.30;3.60;;;18.60;63.10;;;;;;6260703;28;20065;-78
2023/05/27 07:48:01;;;;;;;13.57;4.53;;;18.90;64.70;;;;;;6258207;28;20407;-77
2023/05/27 07:51:03;;;;;;;9.68;3.47;;;20.10;62.80;;;;;;6256672;28;20056;-77
2023/05/27 07:54:05;;;;;;;12.75;4.88;;;21.20;61.20;;;;;;6256336;28;20488;-77
2023/05/27 07:57:07;;;;;;;7.65;3.80;;;22.00;59.40;;;;;;6255213;28;20046;-78
2023/05/27 08:00:11;;;;;;;13.02;3.85;;;22.50;58.20;;;;;;6257173;28;20041;-78
2023/05/27 08:03:13;;;;;;;13.88;4.05;;;22.90;56.80;;;;;;6255535;28;20049;-79
2023/05/27 08:06:14;;;;;;;11.45;4.03;;;23.00;56.20;;;;;;6254758;28;20049;-78
2023/05/27 08:09:16;;;;;;;13.60;5.93;;;22.80;55.60;;;;;;6257264;28;20047;-78
2023/05/27 08:12:18;;;;;;;15.65;4.72;;;22.10;56.40;;;;;;6260362;28;20122;-76
2023/05/27 08:15:22;;;;;;;15.20;5.88;;;21.40;57.30;;;;;;6251583;28;20053;-80
2023/05/27 08:18:23;;;;;;;9.85;4.53;;;21.10;58.50;;;;;;6253640;28;20045;-78
2023/05/27 08:21:25;;;;;;;11.45;3.97;;;20.80;59.40;;;;;;6256950;28;20053;-77
2023/05/27 08:24:27;;;;;;;10.88;3.97;;;20.70;59.40;;;;;;6254753;28;20488;-77
2023/05/27 08:27:44;;;;;;;12.10;4.18;;;20.60;60.10;;;;;;6255541;28;20081;-78
2023/05/27 08:30:47;;;;;;;7.97;3.33;;;20.80;60.50;;;;;;6259431;28;20052;-79
2023/05/27 08:33:49;;;;;;;15.00;4.63;;;21.00;60.20;;;;;;6260000;28;20046;-79
2023/05/27 08:36:50;;;;;;;11.40;3.95;;;21.10;60.00;;;;;;6257634;28;20067;-79
2023/05/27 08:39:54;;;;;;;17.35;3.92;;;21.20;60.00;;;;;;6258653;28;20443;-78
2023/05/27 08:42:56;;;;;;;10.88;4.97;;;21.30;59.80;;;;;;6256070;28;20045;-78
2023/05/27 08:45:59;;;;;;;10.60;4.10;;;21.20;59.90;;;;;;6257011;28;20144;-78
2023/05/27 08:49:01;;;;;;;14.85;4.88;;;21.30;60.20;;;;;;6253288;28;20045;-78
2023/05/27 08:52:04;;;;;;;10.20;3.83;;;21.40;60.10;;;;;;6254995;28;20049;-79
2023/05/27 08:55:08;;;;;;;10.95;4.65;;;21.60;59.70;;;;;;6252163;28;20048;-78
2023/05/27 08:58:11;;;;;;;13.55;4.13;;;21.80;59.80;;;;;;6246841;28;20078;-78
2023/05/27 09:01:17;;;;;;;14.13;4.43;;;22.10;59.40;;;;;;6249700;28;20045;-78
2023/05/27 09:04:19;;;;;;;11.18;4.55;;;22.10;58.90;;;;;;6247638;28;20492;-78
2023/05/27 09:07:20;;;;;;;13.75;3.63;;;21.90;59.30;;;;;;6251279;28;20042;-78
2023/05/27 09:10:22;;;;;;;10.05;4.00;;;22.00;59.50;;;;;;6247300;28;20064;-79
2023/05/27 09:13:28;;;;;;;12.73;3.10;;;22.00;59.20;;;;;;6250205;28;20044;-78
2023/05/27 09:16:31;;;;;;;10.93;4.43;;;22.10;59.00;;;;;;6249166;28;20056;-79
2023/05/27 09:19:33;;;;;;;9.73;4.57;;;22.10;59.30;;;;;;6254249;28;20045;-79
2023/05/27 09:22:34;;;;;;;13.18;4.18;;;22.40;59.30;;;;;;6256444;28;20064;-79
2023/05/27 09:25:36;;;;;;;11.68;4.15;;;22.40;58.70;;;;;;6231926;28;20064;-79
2023/05/27 09:28:39;;;;;;;14.82;4.97;;;22.40;58.90;;;;;;6230560;28;20112;-79
2023/05/27 09:31:44;;;;;;;12.63;4.82;;;22.60;58.90;;;;;;6230143;28;20054;-78
2023/05/27 09:34:47;;;;;;;10.05;4.97;;;22.60;58.50;;;;;;6234477;28;20060;-79
2023/05/27 09:37:50;;;;;;;7.55;4.43;;;22.50;58.50;;;;;;6229167;28;20057;-79
2023/05/27 09:40:52;;;;;;;7.25;4.30;;;22.60;58.80;;;;;;6240564;28;20050;-78
2023/05/27 09:43:58;;;;;;;12.80;4.28;;;22.80;58.80;;;;;;6238417;28;20052;-79
2023/05/27 09:47:02;;;;;;;8.75;4.65;;;23.00;58.20;;;;;;6236647;28;20480;-79
2023/05/27 09:50:05;;;;;;;10.70;5.00;;;22.90;58.00;;;;;;6234185;28;20061;-79
2023/05/27 09:53:07;;;;;;;13.13;4.13;;;22.70;58.00;;;;;;6231094;28;20096;-79
2023/05/27 09:56:09;;;;;;;12.52;4.88;;;22.70;58.40;;;;;;6235900;28;20066;-78
2023/05/27 09:59:11;;;;;;;11.40;4.28;;;22.90;58.50;;;;;;6237832;28;20041;-79
2023/05/27 10:02:18;;;;;;;22.55;5.78;;;23.10;58.40;;;;;;6237256;28;20052;-79
2023/05/27 10:05:20;;;;;;;8.38;4.00;;;23.50;57.80;;;;;;6237993;28;20045;-78
2023/05/27 10:08:22;;;;;;;15.07;4.40;;;23.60;57.90;;;;;;6239464;28;20050;-79
2023/05/27 10:11:26;;;;;;;14.70;4.85;;;23.90;58.00;;;;;;6234378;28;20424;-78
2023/05/27 10:14:27;;;;;;;7.65;4.25;;;24.10;56.90;;;;;;6233413;28;20072;-79
2023/05/27 10:17:41;;;;;;;14.90;4.43;;;24.00;56.90;;;;;;6233683;28;20041;-79
2023/05/27 10:20:44;;;;;;;12.85;4.00;;;24.00;56.40;;;;;;6238798;28;20052;-79
2023/05/27 10:23:56;;;;;;;12.60;4.18;;;23.70;56.70;;;;;;6236945;28;20076;-80
2023/05/27 10:27:02;;;;;;;12.90;5.03;;;23.90;57.00;;;;;;6240456;28;20416;-79
2023/05/27 10:30:04;;;;;;;14.90;6.28;;;24.20;57.00;;;;;;6237407;28;20057;-79
2023/05/27 10:33:07;;;;;;;11.70;4.57;;;24.30;56.40;;;;;;6243544;28;20080;-78
2023/05/27 10:36:11;;;;;;;11.27;5.10;;;24.40;56.30;;;;;;6237997;28;20054;-79
2023/05/27 10:39:17;;;;;;;14.63;4.78;;;24.50;56.20;;;;;;6240019;28;20054;-79
2023/05/27 10:42:22;;;;;;;13.13;3.95;;;24.50;55.90;;;;;;6242060;28;20050;-79
2023/05/27 10:45:32;;;;;;;7.22;4.38;;;24.60;56.10;;;;;;6243601;28;20065;-78
2023/05/27 10:48:36;;;;;;;11.45;4.63;;;25.10;56.10;;;;;;6243813;28;20053;-79
2023/05/27 10:51:39;;;;;;;9.73;4.97;;;25.80;54.90;;;;;;6254722;28;20072;-79
2023/05/27 10:54:42;;;;;;;9.43;3.47;;;26.00;54.20;;;;;;6306896;28;20048;-79
2023/05/27 10:57:45;;;;;;;11.63;4.25;;;26.00;54.10;;;;;;6284848;28;20414;-79
2023/05/27 11:00:49;;;;;;;14.52;4.38;;;26.30;53.80;;;;;;6277248;28;20057;-79
2023/05/27 11:03:54;;;;;;;9.25;4.78;;;26.70;53.10;;;;;;6254682;28;20049;-79
2023/05/27 11:07:01;;;;;;;8.75;4.70;;;26.80;52.80;;;;;;6288743;22;20041;-81
2023/05/27 11:10:02;;;;;;;11.27;5.55;;;27.00;52.50;;;;;;6238910;28;20056;-81
2023/05/27 11:13:04;;;;;;;10.63;4.70;;;27.00;51.80;;;;;;6238472;28;20052;-83
2023/05/27 11:16:07;;;;;;;9.07;3.70;;;26.90;52.10;;;;;;6238729;28;20058;-83
2023/05/27 11:19:12;;;;;;;14.23;5.10;;;27.00;51.80;;;;;;6238943;28;20104;-84
2023/05/27 11:22:16;;;;;;;11.32;4.65;;;27.20;51.60;;;;;;6236682;28;20409;-84
2023/05/27 11:25:17;;;;;;;10.90;4.70;;;27.10;51.30;;;;;;6237039;28;20050;-85
2023/05/27 11:28:19;;;;;;;12.30;4.78;;;27.20;51.40;;;;;;6238086;28;20046;-83
2023/05/27 11:31:30;;;;;;;12.13;4.60;;;27.00;51.50;;;;;;6236221;28;20058;-83
2023/05/27 11:34:35;;;;;;;10.52;3.95;;;26.80;51.90;;;;;;6235381;28;20050;-84
2023/05/27 11:37:37;;;;;;;8.02;4.20;;;26.90;51.70;;;;;;6235568;28;20050;-83
2023/05/27 11:40:39;;;;;;;10.60;5.15;;;27.10;51.70;;;;;;6236493;28;20129;-82
2023/05/27 11:43:48;;;;;;;16.77;7.13;;;27.60;51.80;;;;;;6237647;28;20052;-83
2023/05/27 11:46:51;;;;;;;8.77;4.63;;;28.20;50.40;;;;;;6238117;28;20049;-83
2023/05/27 11:49:54;;;;;;;17.00;4.43;;;28.20;50.40;;;;;;6235161;28;20048;-83
2023/05/27 11:52:57;;;;;;;13.95;4.47;;;28.20;50.60;;;;;;6235193;28;20045;-84
2023/05/27 11:55:59;;;;;;;8.55;4.43;;;28.20;50.10;;;;;;6235829;28;20052;-83
2023/05/27 11:59:01;;;;;;;9.45;5.18;;;28.30;50.10;;;;;;6225296;28;20061;-85
2023/05/27 12:02:03;;;;;;;10.80;4.60;;;28.40;49.60;;;;;;6185181;28;20050;-84
2023/05/27 12:05:07;;;;;;;7.00;4.55;;;28.30;49.50;;;;;;6186832;28;20046;-83
2023/05/27 12:08:09;;;;;;;14.60;5.53;;;28.10;49.70;;;;;;6189667;28;20083;-83
2023/05/27 12:11:11;;;;;;;8.75;5.32;;;28.10;49.90;;;;;;6193408;28;20042;-84
2023/05/27 12:14:12;;;;;;;13.43;5.40;;;28.20;49.50;;;;;;6191003;28;20049;-83
2023/05/27 12:17:14;;;;;;;8.13;4.43;;;27.90;49.50;;;;;;6192627;28;20058;-83
2023/05/27 12:20:18;;;;;;;10.00;4.72;;;27.70;49.80;;;;;;6191186;28;20049;-83
2023/05/27 12:23:19;;;;;;;10.05;4.78;;;27.60;50.20;;;;;;6193825;28;20061;-84
2023/05/27 12:26:21;;;;;;;9.98;3.95;;;27.60;50.30;;;;;;6193289;28;20535;-83
2023/05/27 12:29:24;;;;;;;11.35;4.45;;;27.70;50.30;;;;;;6196166;28;20041;-84
2023/05/27 12:32:26;;;;;;;8.43;4.30;;;27.90;50.40;;;;;;6194315;28;20089;-84
2023/05/27 12:35:29;;;;;;;11.40;4.65;;;28.20;50.20;;;;;;6192635;28;20043;-83
2023/05/27 12:38:31;;;;;;;13.23;5.03;;;28.40;49.90;;;;;;6194919;28;20045;-84
2023/05/27 12:41:32;;;;;;;8.77;4.65;;;28.70;49.50;;;;;;6190316;28;20046;-84
2023/05/27 12:44:34;;;;;;;8.88;4.25;;;28.60;48.80;;;;;;6190720;28;20065;-83
2023/05/27 12:47:36;;;;;;;7.65;3.50;;;28.30;48.90;;;;;;6187892;28;20065;-82
2023/05/27 12:50:39;;;;;;;8.63;3.63;;;28.30;48.90;;;;;;6187598;28;20061;-81
2023/05/27 12:53:41;;;;;;;12.13;4.32;;;28.40;49.40;;;;;;6188900;28;20104;-83
2023/05/27 12:56:43;;;;;;;13.32;5.25;;;28.90;49.20;;;;;;6191343;28;20053;-83
2023/05/27 12:59:44;;;;;;;7.95;3.35;;;29.10;48.40;;;;;;6193971;28;20137;-83
2023/05/27 13:02:47;;;;;;;10.52;4.55;;;28.50;48.20;;;;;;6190211;28;20054;-83
2023/05/27 13:05:50;;;;;;;6.53;4.93;;;28.20;48.30;;;;;;6190204;28;20058;-84
2023/05/27 13:08:52;;;;;;;17.88;4.28;;;27.90;48.90;;;;;;6186712;28;20039;-84
2023/05/27 13:11:54;;;;;;;10.77;4.57;;;28.40;48.70;;;;;;6191815;28;20058;-84
2023/05/27 13:14:56;;;;;;;9.82;4.65;;;28.90;48.30;;;;;;6192037;28;20055;-84
2023/05/27 13:17:59;;;;;;;9.55;4.18;;;29.10;47.30;;;;;;6191865;28;20053;-83
2023/05/27 13:21:02;;;;;;;10.68;5.20;;;28.80;47.50;;;;;;6192328;28;20062;-83
2023/05/27 13:24:04;;;;;;;10.93;4.90;;;28.70;47.00;;;;;;6191901;28;20058;-84
2023/05/27 13:27:06;;;;;;;7.78;4.80;;;28.70;47.10;;;;;;6191796;28;20105;-84
2023/05/27 13:30:09;;;;;;;9.95;4.13;;;28.50;46.80;;;;;;6190522;28;20073;-83
2023/05/27 13:33:11;;;;;;;13.40;5.35;;;28.50;46.70;;;;;;6195945;28;20080;-83
2023/05/27 13:36:14;;;;;;;10.25;5.05;;;28.50;46.90;;;;;;6192998;28;20050;-84
2023/05/27 13:39:16;;;;;;;15.75;4.25;;;28.60;46.60;;;;;;6193393;28;20043;-84
2023/05/27 13:42:17;;;;;;;12.93;6.05;;;28.90;46.30;;;;;;6194878;28;20050;-83
2023/05/27 13:45:19;;;;;;;15.48;4.68;;;29.00;45.50;;;;;;6185986;28;20074;-82
2023/05/27 13:48:21;;;;;;;8.68;4.75;;;28.90;46.10;;;;;;6184402;28;20058;-82
2023/05/27 13:51:24;;;;;;;6.43;4.35;;;29.00;46.20;;;;;;6186933;28;20046;-82
2023/05/27 13:54:26;;;;;;;7.85;5.53;;;28.90;45.80;;;;;;6195669;28;20054;-83
2023/05/27 13:57:28;;;;;;;8.23;4.22;;;29.00;45.50;;;;;;6191582;28;20122;-84
2023/05/27 14:00:30;;;;;;;9.57;4.28;;;28.80;45.30;;;;;;6193940;28;20053;-83
2023/05/27 14:03:32;;;;;;;16.48;6.40;;;28.70;45.70;;;;;;6192335;28;20059;-83
2023/05/27 14:06:36;;;;;;;7.38;4.18;;;28.70;45.30;;;;;;6197669;28;20118;-83
2023/05/27 14:09:37;;;;;;;6.65;3.72;;;28.60;45.80;;;;;;6188137;28;20046;-83
2023/05/27 14:12:40;;;;;;;9.18;4.30;;;28.70;45.40;;;;;;6192540;28;20046;-83
2023/05/27 14:15:41;;;;;;;8.07;4.35;;;28.60;45.40;;;;;;6191429;28;20065;-84
2023/05/27 14:18:44;;;;;;;10.50;5.85;;;28.60;45.30;;;;;;6190463;28;20129;-83
2023/05/27 14:21:48;;;;;;;9.07;4.72;;;28.50;45.20;;;;;;6189998;28;20100;-83
2023/05/27 14:24:49;;;;;;;10.27;3.60;;;28.40;45.10;;;;;;6187166;28;20050;-83
2023/05/27 14:27:51;;;;;;;9.02;4.60;;;28.30;45.10;;;;;;6190719;28;20053;-82
2023/05/27 14:30:53;;;;;;;11.98;6.18;;;28.00;45.30;;;;;;6190731;28;20042;-83
2023/05/27 14:33:54;;;;;;;7.60;4.45;;;27.90;45.40;;;;;;6185387;28;20043;-82
2023/05/27 14:36:57;;;;;;;12.40;4.97;;;28.00;45.30;;;;;;6187479;28;20063;-81
2023/05/27 14:39:59;;;;;;;7.80;4.60;;;28.20;45.50;;;;;;6184896;28;20053;-82
2023/05/27 14:43:01;;;;;;;10.18;5.28;;;28.60;44.90;;;;;;6185517;28;20050;-85
2023/05/27 14:46:03;;;;;;;10.27;4.57;;;28.60;44.60;;;;;;6183853;28;20054;-83
2023/05/27 14:49:05;;;;;;;20.67;4.90;;;28.80;44.10;;;;;;6184837;28;20320;-82
2023/05/27 14:52:08;;;;;;;11.15;4.18;;;28.60;43.80;;;;;;6188416;28;20054;-82
2023/05/27 14:55:10;;;;;;;7.43;4.70;;;28.50;44.30;;;;;;6183350;28;20057;-83
2023/05/27 14:58:11;;;;;;;8.82;4.70;;;28.60;44.10;;;;;;6184724;28;20053;-82
2023/05/27 15:01:13;;;;;;;7.80;4.78;;;28.60;44.00;;;;;;6187260;28;20038;-82
2023/05/27 15:04:15;;;;;;;12.13;5.15;;;28.30;43.90;;;;;;6185872;28;20119;-82
2023/05/27 15:07:18;;;;;;;10.43;4.57;;;28.30;44.30;;;;;;6192152;28;20425;-83
2023/05/27 15:10:20;;;;;;;9.00;4.80;;;28.50;44.40;;;;;;6190868;28;20086;-81
2023/05/27 15:13:22;;;;;;;7.97;4.20;;;28.70;44.60;;;;;;6196117;28;20628;-83
2023/05/27 15:16:23;;;;;;;11.02;4.07;;;29.00;43.80;;;;;;6194098;28;20053;-84
2023/05/27 15:19:25;;;;;;;8.35;4.80;;;29.00;43.70;;;;;;6202824;28;20136;-83
2023/05/27 15:22:28;;;;;;;6.45;4.03;;;28.90;43.40;;;;;;6196784;28;20057;-83
2023/05/27 15:25:31;;;;;;;7.20;3.65;;;28.70;43.40;;;;;;6202703;28;20043;-81
2023/05/27 15:28:32;;;;;;;17.17;4.57;;;28.60;43.40;;;;;;6200128;28;20597;-82
2023/05/27 15:31:34;;;;;;;8.38;4.53;;;28.50;43.10;;;;;;6196666;28;20051;-85
2023/05/27 15:34:36;;;;;;;11.52;5.10;;;28.50;43.60;;;;;;6196776;28;20054;-85
2023/05/27 15:37:39;;;;;;;6.57;3.97;;;28.60;43.30;;;;;;6197019;28;20385;-84
2023/05/27 15:40:44;;;;;;;9.48;4.50;;;28.60;43.60;;;;;;6199900;28;20046;-85
2023/05/27 15:43:46;;;;;;;6.43;4.18;;;28.50;43.80;;;;;;6197847;28;20050;-85